Time;durP1;ratioP1;P1;durP2;ratioP2;P2;SDS_P1;SDS_P2;PMS_P1;PMS_P2;Temp;Humidity;BMP_temperature;BMP_pressure;BME280_temperature;BME280_humidity;BME280_pressure;Samples;Min_cycle;Max_cycle;Signal;HPM_P1;HPM_P2
2023/11/27 00:01:32;;;;;;;25.87;16.37;;;;;;;;;;5016947;28;20206;-68
2023/11/27 00:03:57;;;;;;;22.33;15.07;;;;;;;;;;5014865;28;20189;-69
2023/11/27 00:06:22;;;;;;;27.37;16.37;;;;;;;;;;5019162;28;20649;-68
2023/11/27 00:08:47;;;;;;;22.40;15.17;;;;;;;;;;5011600;28;20884;-68
2023/11/27 00:11:12;;;;;;;26.23;15.77;;;;;;;;;;5020990;28;20201;-68
2023/11/27 00:13:38;;;;;;;25.07;16.43;;;;;;;;;;5017855;28;21788;-68
2023/11/27 00:16:03;;;;;;;22.57;16.40;;;;;;;;;;5015840;28;20919;-68
2023/11/27 00:18:28;;;;;;;28.20;15.77;;;;;;;;;;5012000;28;20977;-68
2023/11/27 00:20:53;;;;;;;23.33;15.87;;;;;;;;;;5010434;28;20205;-68
2023/11/27 00:23:19;;;;;;;27.90;16.43;;;;;;;;;;5011606;28;20198;-68
2023/11/27 00:25:44;;;;;;;26.67;15.93;;;;;;;;;;4997863;28;20574;-68
2023/11/27 00:28:10;;;;;;;22.03;14.53;;;;;;;;;;5014741;28;20233;-69
2023/11/27 00:30:36;;;;;;;21.23;15.73;;;;;;;;;;5016812;28;20183;-69
2023/11/27 00:33:01;;;;;;;30.37;15.40;;;;;;;;;;5021755;28;20217;-69
2023/11/27 00:35:27;;;;;;;23.83;15.77;;;;;;;;;;5021814;28;20179;-69
2023/11/27 00:37:52;;;;;;;24.87;16.27;;;;;;;;;;5025490;28;20178;-69
2023/11/27 00:40:17;;;;;;;21.60;14.47;;;;;;;;;;5003175;28;20190;-69
2023/11/27 00:42:42;;;;;;;28.17;18.10;;;;;;;;;;5021458;28;20187;-69
2023/11/27 00:45:08;;;;;;;28.80;17.23;;;;;;;;;;5018575;28;20177;-68
2023/11/27 00:47:34;;;;;;;22.47;15.40;;;;;;;;;;5019171;28;20626;-69
2023/11/27 00:49:59;;;;;;;25.97;17.30;;;;;;;;;;4999794;28;20198;-69
2023/11/27 00:52:25;;;;;;;27.67;16.87;;;;;;;;;;5024634;28;20609;-69
2023/11/27 00:54:50;;;;;;;26.93;17.20;;;;;;;;;;5015516;28;20178;-68
2023/11/27 00:57:16;;;;;;;25.97;16.20;;;;;;;;;;5025776;28;20166;-68
2023/11/27 00:59:41;;;;;;;23.23;15.27;;;;;;;;;;5025001;28;20204;-68
2023/11/27 01:02:06;;;;;;;23.00;14.57;;;;;;;;;;5024337;28;20266;-68
2023/11/27 01:04:32;;;;;;;25.30;14.93;;;;;;;;;;5026430;28;20603;-68
2023/11/27 01:06:57;;;;;;;23.70;12.50;;;;;;;;;;5013579;28;20185;-68
2023/11/27 01:09:24;;;;;;;22.37;13.10;;;;;;;;;;5021426;28;20229;-69
2023/11/27 01:11:49;;;;;;;19.40;12.93;;;;;;;;;;5021907;28;20210;-69
2023/11/27 01:14:15;;;;;;;20.23;12.00;;;;;;;;;;5024823;28;20183;-68
2023/11/27 01:16:40;;;;;;;20.37;11.83;;;;;;;;;;5024662;28;20175;-68
2023/11/27 01:19:05;;;;;;;19.23;11.80;;;;;;;;;;5025817;28;20560;-68
2023/11/27 01:21:31;;;;;;;20.17;10.37;;;;;;;;;;5030503;28;20227;-69
2023/11/27 01:23:56;;;;;;;28.03;10.53;;;;;;;;;;5009502;28;20182;-68
2023/11/27 01:26:21;;;;;;;18.97;10.53;;;;;;;;;;5031761;28;20248;-68
2023/11/27 01:28:46;;;;;;;17.87;9.53;;;;;;;;;;5030417;28;20682;-68
2023/11/27 01:31:12;;;;;;;16.00;9.43;;;;;;;;;;5002849;28;20207;-67
2023/11/27 01:33:37;;;;;;;16.83;9.33;;;;;;;;;;5022776;28;20177;-68
2023/11/27 01:36:03;;;;;;;14.60;9.87;;;;;;;;;;5025819;28;20231;-68
2023/11/27 01:38:28;;;;;;;13.50;9.27;;;;;;;;;;5027840;28;20186;-68
2023/11/27 01:40:53;;;;;;;15.40;8.83;;;;;;;;;;5014955;28;20327;-69
2023/11/27 01:43:20;;;;;;;15.33;8.87;;;;;;;;;;5033060;28;20320;-68
2023/11/27 01:45:45;;;;;;;15.97;8.53;;;;;;;;;;5030688;28;20187;-68
2023/11/27 01:48:10;;;;;;;16.97;8.83;;;;;;;;;;5024623;28;20550;-68
2023/11/27 01:50:36;;;;;;;13.17;8.93;;;;;;;;;;5029260;28;20172;-68
2023/11/27 01:53:01;;;;;;;13.93;8.37;;;;;;;;;;5027528;28;20271;-68
2023/11/27 01:55:28;;;;;;;13.67;8.03;;;;;;;;;;5025249;28;20178;-68
2023/11/27 01:57:53;;;;;;;14.93;8.47;;;;;;;;;;5027551;28;20603;-68
2023/11/27 02:00:19;;;;;;;11.10;7.40;;;;;;;;;;5025737;28;20174;-68
2023/11/27 02:02:45;;;;;;;13.13;8.33;;;;;;;;;;5030504;28;20698;-68
2023/11/27 02:05:11;;;;;;;16.77;8.57;;;;;;;;;;5024753;28;20712;-67
2023/11/27 02:07:37;;;;;;;12.80;8.43;;;;;;;;;;5027889;28;20178;-67
2023/11/27 02:10:02;;;;;;;13.77;7.93;;;;;;;;;;5031516;28;20202;-67
2023/11/27 02:12:28;;;;;;;12.53;7.93;;;;;;;;;;5027883;28;20279;-67
2023/11/27 02:14:53;;;;;;;16.03;7.40;;;;;;;;;;5030379;28;20170;-67
2023/11/27 02:17:18;;;;;;;10.80;7.30;;;;;;;;;;5029390;28;20167;-67
2023/11/27 02:19:43;;;;;;;11.83;7.70;;;;;;;;;;5029079;28;20205;-69
2023/11/27 02:22:08;;;;;;;16.50;7.60;;;;;;;;;;5026019;28;20673;-69
2023/11/27 02:24:34;;;;;;;12.87;7.30;;;;;;;;;;5026029;28;20545;-69
2023/11/27 02:26:59;;;;;;;9.80;7.53;;;;;;;;;;5025918;28;20213;-68
2023/11/27 02:29:24;;;;;;;14.27;7.43;;;;;;;;;;5011612;28;20207;-68
2023/11/27 02:31:49;;;;;;;13.87;8.70;;;;;;;;;;5029283;28;20188;-68
2023/11/27 02:34:17;;;;;;;9.73;7.13;;;;;;;;;;5022420;28;20174;-68
2023/11/27 02:36:42;;;;;;;13.57;7.40;;;;;;;;;;5028563;28;20179;-68
2023/11/27 02:39:07;;;;;;;11.73;7.70;;;;;;;;;;5021277;28;20171;-68
2023/11/27 02:41:36;;;;;;;12.37;6.87;;;;;;;;;;5025962;28;20732;-68
2023/11/27 02:44:02;;;;;;;11.87;7.10;;;;;;;;;;5021712;28;20173;-68
2023/11/27 02:46:27;;;;;;;9.87;7.10;;;;;;;;;;5026230;28;20278;-68
2023/11/27 02:48:52;;;;;;;10.70;7.57;;;;;;;;;;5028117;28;20233;-68
2023/11/27 02:51:20;;;;;;;13.13;7.13;;;;;;;;;;5031842;28;20241;-68
2023/11/27 02:53:45;;;;;;;12.67;8.63;;;;;;;;;;5029713;28;20628;-69
2023/11/27 02:56:11;;;;;;;12.57;8.10;;;;;;;;;;5026838;28;20212;-68
2023/11/27 02:58:38;;;;;;;11.23;7.27;;;;;;;;;;5010768;28;20188;-68
2023/11/27 03:01:04;;;;;;;13.23;7.57;;;;;;;;;;5028112;28;20666;-68
2023/11/27 03:03:29;;;;;;;11.30;7.27;;;;;;;;;;5023477;28;20193;-68
2023/11/27 03:05:54;;;;;;;13.53;7.63;;;;;;;;;;5025370;28;20178;-68
2023/11/27 03:08:19;;;;;;;12.80;8.27;;;;;;;;;;5025353;28;20202;-68
2023/11/27 03:10:44;;;;;;;12.20;8.60;;;;;;;;;;5010810;28;20684;-68
2023/11/27 03:13:09;;;;;;;12.40;8.07;;;;;;;;;;5029618;28;20293;-68
2023/11/27 03:15:35;;;;;;;12.80;8.93;;;;;;;;;;5029067;28;20174;-68
2023/11/27 03:18:00;;;;;;;17.23;9.87;;;;;;;;;;5007962;28;20190;-68
2023/11/27 03:20:25;;;;;;;16.87;9.43;;;;;;;;;;5027195;28;20174;-68
2023/11/27 03:22:50;;;;;;;13.73;8.60;;;;;;;;;;5024703;28;20268;-68
2023/11/27 03:25:15;;;;;;;15.47;9.53;;;;;;;;;;5025568;28;20178;-70
2023/11/27 03:27:41;;;;;;;13.37;8.87;;;;;;;;;;5029403;28;20178;-68
2023/11/27 03:30:06;;;;;;;14.70;9.43;;;;;;;;;;5029148;28;20198;-69
2023/11/27 03:32:31;;;;;;;13.73;9.07;;;;;;;;;;5029109;28;20185;-68
2023/11/27 03:34:59;;;;;;;14.63;9.60;;;;;;;;;;5023358;28;20174;-69
2023/11/27 03:37:25;;;;;;;13.73;8.63;;;;;;;;;;5022787;28;20685;-68
2023/11/27 03:39:50;;;;;;;17.40;8.70;;;;;;;;;;5028013;28;20186;-69
2023/11/27 03:42:15;;;;;;;12.70;7.77;;;;;;;;;;5024915;28;20292;-68
2023/11/27 03:44:40;;;;;;;12.03;8.00;;;;;;;;;;5022570;28;20718;-69
2023/11/27 03:47:06;;;;;;;14.10;8.33;;;;;;;;;;5024392;28;20189;-69
2023/11/27 03:49:31;;;;;;;8.83;7.27;;;;;;;;;;5024686;28;20205;-69
2023/11/27 03:51:56;;;;;;;13.37;8.33;;;;;;;;;;5025851;28;20210;-69
2023/11/27 03:54:21;;;;;;;14.63;8.73;;;;;;;;;;5024822;28;20233;-69
2023/11/27 03:56:46;;;;;;;12.70;7.83;;;;;;;;;;5022223;28;20253;-69
2023/11/27 03:59:12;;;;;;;13.70;8.93;;;;;;;;;;5017842;28;20278;-68
2023/11/27 04:01:37;;;;;;;11.03;7.33;;;;;;;;;;5020781;28;20206;-68
2023/11/27 04:04:02;;;;;;;10.03;7.83;;;;;;;;;;5024803;28;20186;-68
2023/11/27 04:06:34;;;;;;;12.90;8.90;;;;;;;;;;5011576;28;20233;-68
2023/11/27 04:08:59;;;;;;;14.50;8.67;;;;;;;;;;5010682;28;20190;-69
2023/11/27 04:11:27;;;;;;;10.30;8.07;;;;;;;;;;5028156;28;20310;-68
2023/11/27 04:13:52;;;;;;;10.37;7.83;;;;;;;;;;5025053;28;20228;-69
2023/11/27 04:16:17;;;;;;;11.17;8.40;;;;;;;;;;5029037;28;21362;-69
2023/11/27 04:18:43;;;;;;;13.57;8.07;;;;;;;;;;5015409;28;20262;-69
2023/11/27 04:21:08;;;;;;;11.60;7.77;;;;;;;;;;5025417;28;20171;-69
2023/11/27 04:23:33;;;;;;;11.60;7.70;;;;;;;;;;5028702;28;20232;-69
2023/11/27 04:25:58;;;;;;;10.87;7.70;;;;;;;;;;5028427;28;20178;-69
2023/11/27 04:28:24;;;;;;;8.93;7.63;;;;;;;;;;5025860;28;20248;-69
2023/11/27 04:30:50;;;;;;;10.87;7.60;;;;;;;;;;5029102;28;20197;-69
2023/11/27 04:33:15;;;;;;;8.50;6.83;;;;;;;;;;5032659;28;21342;-69
2023/11/27 04:35:41;;;;;;;8.37;7.00;;;;;;;;;;5010430;28;20202;-69
2023/11/27 04:38:06;;;;;;;8.13;6.93;;;;;;;;;;5011783;28;20182;-68
2023/11/27 04:40:31;;;;;;;10.30;6.57;;;;;;;;;;5033478;28;20228;-68
2023/11/27 04:42:57;;;;;;;7.37;6.30;;;;;;;;;;5030673;28;20190;-68
2023/11/27 04:45:22;;;;;;;8.40;6.63;;;;;;;;;;5030465;28;20220;-68
2023/11/27 04:47:47;;;;;;;7.37;6.00;;;;;;;;;;5034105;28;20582;-68
2023/11/27 04:50:12;;;;;;;9.40;6.50;;;;;;;;;;5029370;28;20673;-69
2023/11/27 04:52:37;;;;;;;10.93;7.17;;;;;;;;;;5025218;28;20225;-69
2023/11/27 04:55:03;;;;;;;12.60;7.10;;;;;;;;;;5027225;28;20182;-69
2023/11/27 04:57:28;;;;;;;8.77;6.67;;;;;;;;;;5031216;28;20190;-69
2023/11/27 04:59:55;;;;;;;8.93;6.53;;;;;;;;;;5028497;28;20179;-69
2023/11/27 05:02:20;;;;;;;10.53;6.47;;;;;;;;;;5031643;28;20198;-70
2023/11/27 05:04:45;;;;;;;9.77;6.97;;;;;;;;;;5031684;28;20302;-70
2023/11/27 05:07:10;;;;;;;12.47;7.13;;;;;;;;;;5029630;28;20265;-70
2023/11/27 05:09:38;;;;;;;10.30;7.03;;;;;;;;;;5029743;28;20693;-70
2023/11/27 05:12:04;;;;;;;8.37;5.20;;;;;;;;;;5024962;28;20655;-70
2023/11/27 05:14:29;;;;;;;5.37;4.60;;;;;;;;;;5030515;28;20190;-70
2023/11/27 05:16:54;;;;;;;8.83;5.77;;;;;;;;;;5024706;28;20218;-69
2023/11/27 05:19:19;;;;;;;7.30;5.70;;;;;;;;;;5033137;28;20602;-69
2023/11/27 05:21:45;;;;;;;6.80;5.50;;;;;;;;;;5025633;28;20206;-69
2023/11/27 05:24:10;;;;;;;6.67;4.60;;;;;;;;;;5031238;28;20185;-69
2023/11/27 05:26:35;;;;;;;6.17;4.60;;;;;;;;;;5023696;28;20175;-69
2023/11/27 05:29:00;;;;;;;5.83;4.23;;;;;;;;;;5029076;28;20209;-69
2023/11/27 05:31:26;;;;;;;5.63;4.00;;;;;;;;;;5021744;28;20190;-69
2023/11/27 05:33:51;;;;;;;4.93;3.53;;;;;;;;;;5026500;28;20178;-69
2023/11/27 05:36:16;;;;;;;4.97;3.40;;;;;;;;;;5029410;28;20232;-69
2023/11/27 05:38:42;;;;;;;6.30;4.00;;;;;;;;;;5014327;28;20657;-69
2023/11/27 05:41:08;;;;;;;5.83;3.83;;;;;;;;;;5030303;28;20219;-69
2023/11/27 05:43:33;;;;;;;4.87;4.17;;;;;;;;;;5027396;28;20170;-68
2023/11/27 05:46:01;;;;;;;6.13;4.17;;;;;;;;;;5024893;28;20187;-68
2023/11/27 05:48:26;;;;;;;5.90;3.60;;;;;;;;;;5028685;28;20365;-69
2023/11/27 05:50:51;;;;;;;4.63;3.77;;;;;;;;;;5031626;28;20676;-69
2023/11/27 05:53:16;;;;;;;5.00;4.17;;;;;;;;;;5030240;28;20306;-68
2023/11/27 05:55:42;;;;;;;4.50;3.70;;;;;;;;;;5009399;28;20183;-69
2023/11/27 05:58:08;;;;;;;4.97;3.63;;;;;;;;;;5020116;28;20672;-68
2023/11/27 06:00:33;;;;;;;4.60;3.30;;;;;;;;;;5023786;28;20170;-69
2023/11/27 06:02:58;;;;;;;6.90;4.73;;;;;;;;;;5028751;28;20201;-69
2023/11/27 06:05:24;;;;;;;8.50;4.17;;;;;;;;;;5028230;28;20187;-68
2023/11/27 06:07:49;;;;;;;5.23;4.20;;;;;;;;;;5031268;28;20646;-69
2023/11/27 06:10:15;;;;;;;8.10;4.20;;;;;;;;;;5024687;28;20344;-69
2023/11/27 06:12:40;;;;;;;7.93;4.00;;;;;;;;;;5028638;28;20571;-69
2023/11/27 06:15:05;;;;;;;6.60;3.93;;;;;;;;;;5025308;28;20182;-69
2023/11/27 06:17:31;;;;;;;4.70;3.70;;;;;;;;;;5001346;28;20288;-69
2023/11/27 06:19:56;;;;;;;6.10;4.47;;;;;;;;;;5024738;28;20186;-69
2023/11/27 06:22:21;;;;;;;7.70;4.20;;;;;;;;;;5023317;28;20210;-70
2023/11/27 06:24:47;;;;;;;7.77;4.53;;;;;;;;;;5023830;28;20183;-69
2023/11/27 06:27:13;;;;;;;5.83;4.17;;;;;;;;;;5025401;28;20186;-69
2023/11/27 06:29:38;;;;;;;6.90;5.30;;;;;;;;;;5030364;28;20260;-69
2023/11/27 06:32:03;;;;;;;5.97;4.77;;;;;;;;;;5027869;28;20591;-69
2023/11/27 06:34:28;;;;;;;6.93;5.23;;;;;;;;;;5027304;28;20597;-69
2023/11/27 06:36:54;;;;;;;5.83;4.70;;;;;;;;;;5022890;28;20232;-69
2023/11/27 06:39:19;;;;;;;6.10;5.07;;;;;;;;;;5023308;28;20186;-69
2023/11/27 06:41:44;;;;;;;7.33;5.50;;;;;;;;;;5027340;28;20252;-69
2023/11/27 06:44:12;;;;;;;7.30;5.80;;;;;;;;;;5029039;28;20178;-69
2023/11/27 06:46:38;;;;;;;7.97;5.93;;;;;;;;;;5025332;28;20672;-69
2023/11/27 06:49:05;;;;;;;7.67;5.80;;;;;;;;;;5028261;28;20630;-69
2023/11/27 06:51:30;;;;;;;8.27;5.57;;;;;;;;;;5009960;28;20700;-69
2023/11/27 06:53:55;;;;;;;7.87;6.37;;;;;;;;;;5022473;28;20178;-70
2023/11/27 06:56:20;;;;;;;9.13;6.27;;;;;;;;;;5021123;28;20244;-69
2023/11/27 06:58:46;;;;;;;8.47;6.33;;;;;;;;;;5027928;28;20268;-70
2023/11/27 07:01:11;;;;;;;8.03;7.00;;;;;;;;;;5019358;28;20535;-69
2023/11/27 07:03:36;;;;;;;7.67;5.77;;;;;;;;;;5021692;28;20185;-69
2023/11/27 07:06:02;;;;;;;10.23;7.10;;;;;;;;;;5027765;28;20182;-69
2023/11/27 07:08:27;;;;;;;7.27;5.63;;;;;;;;;;5028515;28;20299;-69
2023/11/27 07:10:52;;;;;;;10.17;6.57;;;;;;;;;;5009853;28;20179;-70
2023/11/27 07:13:18;;;;;;;8.27;6.67;;;;;;;;;;5028541;28;20689;-69
2023/11/27 07:15:43;;;;;;;9.73;6.23;;;;;;;;;;5024348;28;20179;-70
2023/11/27 07:18:08;;;;;;;8.63;6.83;;;;;;;;;;5022804;28;20178;-69
2023/11/27 07:20:36;;;;;;;9.60;6.77;;;;;;;;;;5024311;28;20171;-69
2023/11/27 07:23:01;;;;;;;9.37;7.67;;;;;;;;;;5020222;28;20207;-70
2023/11/27 07:25:26;;;;;;;7.60;6.60;;;;;;;;;;5022454;28;20664;-69
2023/11/27 07:27:51;;;;;;;8.03;6.23;;;;;;;;;;5021968;28;20178;-69
2023/11/27 07:30:16;;;;;;;9.73;7.03;;;;;;;;;;5027158;28;20222;-69
2023/11/27 07:32:42;;;;;;;8.27;6.10;;;;;;;;;;5024243;28;20325;-70
2023/11/27 07:35:10;;;;;;;9.67;6.47;;;;;;;;;;5023356;28;20192;-70
2023/11/27 07:37:39;;;;;;;6.83;5.77;;;;;;;;;;5018741;28;20191;-69
2023/11/27 07:40:12;;;;;;;8.53;6.50;;;;;;;;;;5018863;28;20195;-70
2023/11/27 07:42:38;;;;;;;9.43;6.70;;;;;;;;;;5002014;28;20622;-70
2023/11/27 07:45:05;;;;;;;10.10;6.87;;;;;;;;;;5021467;28;20190;-70
2023/11/27 07:47:30;;;;;;;8.20;6.67;;;;;;;;;;5005153;28;20576;-70
2023/11/27 07:49:55;;;;;;;9.00;6.90;;;;;;;;;;5021943;28;20210;-70
2023/11/27 07:52:20;;;;;;;8.53;6.43;;;;;;;;;;5020589;28;20226;-69
2023/11/27 07:54:46;;;;;;;9.93;6.83;;;;;;;;;;5021730;28;20198;-70
2023/11/27 07:57:11;;;;;;;9.13;7.00;;;;;;;;;;5022152;28;20189;-70
2023/11/27 07:59:36;;;;;;;8.37;7.00;;;;;;;;;;5023051;28;20305;-70
2023/11/27 08:02:03;;;;;;;10.23;6.97;;;;;;;;;;5021548;28;20751;-70
2023/11/27 08:04:29;;;;;;;9.27;6.37;;;;;;;;;;5020159;28;20240;-70
2023/11/27 08:06:54;;;;;;;8.97;6.83;;;;;;;;;;5024036;28;20240;-70
2023/11/27 08:09:20;;;;;;;10.47;7.30;;;;;;;;;;5025527;28;20564;-70
2023/11/27 08:11:45;;;;;;;10.63;7.03;;;;;;;;;;5025711;28;20202;-69
2023/11/27 08:14:10;;;;;;;8.97;6.47;;;;;;;;;;5025891;28;20594;-70
2023/11/27 08:16:35;;;;;;;8.33;6.40;;;;;;;;;;5009716;28;20602;-69
2023/11/27 08:19:01;;;;;;;9.93;7.57;;;;;;;;;;5026618;28;20191;-70
2023/11/27 08:21:26;;;;;;;8.33;6.53;;;;;;;;;;5025834;28;20224;-70
2023/11/27 08:23:51;;;;;;;8.30;6.27;;;;;;;;;;5020892;28;20186;-70
2023/11/27 08:26:17;;;;;;;9.47;6.90;;;;;;;;;;5024663;28;20911;-70
2023/11/27 08:28:42;;;;;;;9.93;7.70;;;;;;;;;;5025972;28;20603;-69
2023/11/27 08:31:07;;;;;;;9.10;6.90;;;;;;;;;;5024986;28;20170;-70
2023/11/27 08:33:32;;;;;;;8.53;6.37;;;;;;;;;;5004450;28;20189;-69
2023/11/27 08:36:00;;;;;;;8.87;7.10;;;;;;;;;;5015270;28;20199;-69
2023/11/27 08:38:25;;;;;;;8.40;6.60;;;;;;;;;;5027342;28;20862;-69
2023/11/27 08:40:51;;;;;;;9.17;7.13;;;;;;;;;;5030035;28;20178;-69
2023/11/27 08:43:16;;;;;;;8.37;6.50;;;;;;;;;;5030137;28;20630;-69
2023/11/27 08:45:42;;;;;;;9.57;7.27;;;;;;;;;;5026570;28;20280;-69
2023/11/27 08:48:08;;;;;;;9.07;6.67;;;;;;;;;;5006299;28;20183;-69
2023/11/27 08:50:35;;;;;;;8.47;6.17;;;;;;;;;;5023698;28;20181;-68
2023/11/27 08:53:01;;;;;;;9.10;6.93;;;;;;;;;;5025909;28;20206;-68
2023/11/27 08:55:29;;;;;;;8.87;6.63;;;;;;;;;;5012144;28;20735;-68
2023/11/27 08:58:01;;;;;;;7.40;6.43;;;;;;;;;;5028833;28;20214;-69
2023/11/27 09:00:29;;;;;;;11.00;6.67;;;;;;;;;;5029440;28;20239;-69
2023/11/27 09:02:57;;;;;;;7.87;6.97;;;;;;;;;;5025457;28;20701;-69
2023/11/27 09:05:32;;;;;;;8.33;5.83;;;;;;;;;;5021576;28;20266;-69
2023/11/27 09:08:00;;;;;;;9.30;6.43;;;;;;;;;;5027304;28;20185;-69
2023/11/27 09:10:25;;;;;;;11.67;6.57;;;;;;;;;;5023330;28;20755;-69
2023/11/27 09:12:50;;;;;;;7.27;6.13;;;;;;;;;;5028582;28;20194;-69
2023/11/27 09:15:17;;;;;;;6.40;5.50;;;;;;;;;;5024439;28;20185;-69
2023/11/27 09:17:43;;;;;;;7.00;5.77;;;;;;;;;;5009417;28;20165;-69
2023/11/27 09:20:10;;;;;;;7.63;6.00;;;;;;;;;;5026663;28;20186;-69
2023/11/27 09:22:35;;;;;;;7.47;6.13;;;;;;;;;;5004732;28;20201;-69
2023/11/27 09:25:00;;;;;;;6.53;5.30;;;;;;;;;;5024640;28;20178;-69
2023/11/27 09:27:26;;;;;;;7.20;5.80;;;;;;;;;;5025712;28;20240;-69
2023/11/27 09:29:51;;;;;;;8.33;6.20;;;;;;;;;;5026540;28;20230;-69
2023/11/27 09:32:16;;;;;;;7.63;5.83;;;;;;;;;;5028551;28;20203;-68
2023/11/27 09:34:41;;;;;;;7.60;5.83;;;;;;;;;;5028005;28;20661;-69
2023/11/27 09:37:06;;;;;;;6.90;5.53;;;;;;;;;;5022381;28;20228;-69
2023/11/27 09:39:32;;;;;;;8.57;6.23;;;;;;;;;;5020390;28;20193;-68
2023/11/27 09:41:57;;;;;;;8.63;6.33;;;;;;;;;;5023530;28;20202;-69
2023/11/27 09:44:22;;;;;;;9.47;6.20;;;;;;;;;;5024966;28;20206;-69
2023/11/27 09:46:49;;;;;;;8.87;6.70;;;;;;;;;;5028369;28;20182;-69
2023/11/27 09:49:19;;;;;;;7.63;6.20;;;;;;;;;;5022128;28;20198;-69
2023/11/27 09:51:47;;;;;;;7.93;6.23;;;;;;;;;;5006256;28;20273;-68
2023/11/27 09:54:12;;;;;;;8.27;6.67;;;;;;;;;;5031210;28;20178;-68
2023/11/27 09:56:39;;;;;;;9.83;6.73;;;;;;;;;;5022220;28;20622;-68
2023/11/27 09:59:08;;;;;;;8.43;6.27;;;;;;;;;;5024748;28;20264;-68
2023/11/27 10:01:35;;;;;;;9.30;6.43;;;;;;;;;;5030659;28;20202;-68
2023/11/27 10:04:01;;;;;;;7.50;5.93;;;;;;;;;;5021714;28;20174;-68
2023/11/27 10:06:31;;;;;;;8.77;6.57;;;;;;;;;;4998281;28;20239;-70
2023/11/27 10:09:09;;;;;;;8.93;6.53;;;;;;;;;;5032088;28;20293;-68
2023/11/27 10:11:35;;;;;;;7.77;6.37;;;;;;;;;;5032894;28;20201;-68
2023/11/27 10:14:08;;;;;;;8.63;6.87;;;;;;;;;;5032340;28;20166;-68
2023/11/27 10:16:34;;;;;;;8.03;6.13;;;;;;;;;;5026285;28;20647;-68
2023/11/27 10:19:05;;;;;;;7.90;6.93;;;;;;;;;;5006749;28;20265;-68
2023/11/27 10:21:31;;;;;;;6.90;6.13;;;;;;;;;;5024697;28;20205;-68
2023/11/27 10:24:01;;;;;;;8.33;6.23;;;;;;;;;;5027614;28;20175;-68
2023/11/27 10:26:26;;;;;;;7.37;6.03;;;;;;;;;;5028502;28;20186;-69
2023/11/27 10:28:51;;;;;;;7.87;6.73;;;;;;;;;;5023161;28;20198;-69
2023/11/27 10:31:17;;;;;;;8.10;6.03;;;;;;;;;;5023807;28;20202;-69
2023/11/27 10:33:42;;;;;;;8.07;6.47;;;;;;;;;;5026330;28;20171;-69
2023/11/27 10:36:09;;;;;;;8.13;6.87;;;;;;;;;;5022114;28;20261;-69
2023/11/27 10:38:36;;;;;;;7.53;6.53;;;;;;;;;;5025053;28;20252;-69
2023/11/27 10:41:02;;;;;;;10.10;6.63;;;;;;;;;;5019639;28;20262;-69
2023/11/27 10:43:27;;;;;;;8.20;6.17;;;;;;;;;;5025790;28;20232;-69
2023/11/27 10:45:55;;;;;;;8.43;6.57;;;;;;;;;;5026152;28;20227;-69
2023/11/27 10:48:20;;;;;;;9.07;6.90;;;;;;;;;;5027188;28;20218;-69
2023/11/27 10:50:47;;;;;;;7.77;6.00;;;;;;;;;;5027724;28;20171;-68
2023/11/27 10:53:13;;;;;;;8.20;5.87;;;;;;;;;;5028906;28;20305;-68
2023/11/27 10:55:41;;;;;;;7.07;5.80;;;;;;;;;;5023855;28;20696;-68
2023/11/27 10:58:07;;;;;;;7.23;5.93;;;;;;;;;;5022786;28;20186;-68
2023/11/27 11:00:38;;;;;;;8.77;6.70;;;;;;;;;;5020260;28;20634;-68
2023/11/27 11:03:07;;;;;;;6.63;5.87;;;;;;;;;;5024997;28;20206;-68
2023/11/27 11:05:51;;;;;;;7.20;5.63;;;;;;;;;;5023040;28;20186;-68
2023/11/27 11:08:20;;;;;;;9.37;6.43;;;;;;;;;;5023116;28;20624;-68
2023/11/27 11:10:45;;;;;;;9.33;5.90;;;;;;;;;;5024276;28;20194;-68
2023/11/27 11:13:12;;;;;;;8.37;6.17;;;;;;;;;;5006728;28;20203;-68
2023/11/27 11:15:40;;;;;;;7.70;5.60;;;;;;;;;;5021738;28;20291;-68
2023/11/27 11:18:14;;;;;;;7.53;5.90;;;;;;;;;;5003107;28;20189;-68
2023/11/27 11:20:49;;;;;;;8.37;5.93;;;;;;;;;;5023466;28;20175;-68
2023/11/27 11:23:22;;;;;;;7.63;5.93;;;;;;;;;;5030686;28;20276;-68
2023/11/27 11:26:05;;;;;;;8.33;6.20;;;;;;;;;;5020246;28;20205;-68
2023/11/27 11:28:48;;;;;;;7.27;6.27;;;;;;;;;;5026691;28;20240;-68
2023/11/27 11:31:17;;;;;;;6.87;5.43;;;;;;;;;;5010438;28;20293;-67
2023/11/27 11:33:47;;;;;;;9.17;6.17;;;;;;;;;;5023403;28;20269;-67
2023/11/27 11:36:13;;;;;;;9.10;6.53;;;;;;;;;;5021284;28;20262;-67
2023/11/27 11:38:44;;;;;;;9.03;5.90;;;;;;;;;;5023553;28;20257;-67
2023/11/27 11:41:09;;;;;;;8.30;5.97;;;;;;;;;;5020619;28;20193;-67
2023/11/27 11:43:44;;;;;;;8.10;6.20;;;;;;;;;;5026668;28;20550;-68
2023/11/27 11:46:18;;;;;;;9.60;6.53;;;;;;;;;;5006885;28;20265;-68
2023/11/27 11:48:52;;;;;;;7.63;6.13;;;;;;;;;;5020275;28;20210;-68
2023/11/27 11:51:19;;;;;;;7.57;5.43;;;;;;;;;;5024891;28;20207;-68
2023/11/27 11:53:47;;;;;;;6.87;5.80;;;;;;;;;;5009689;28;20292;-68
2023/11/27 11:56:19;;;;;;;7.53;5.63;;;;;;;;;;5007793;28;20542;-68
2023/11/27 11:58:44;;;;;;;7.40;5.63;;;;;;;;;;5019306;28;20186;-67
2023/11/27 12:01:09;;;;;;;7.47;6.27;;;;;;;;;;5026090;28;20182;-67
2023/11/27 12:03:36;;;;;;;7.37;6.03;;;;;;;;;;5022290;28;20272;-67
2023/11/27 12:06:13;;;;;;;8.20;6.43;;;;;;;;;;5023853;28;20647;-67
2023/11/27 12:08:39;;;;;;;8.13;6.27;;;;;;;;;;5021362;28;20288;-67
2023/11/27 12:11:05;;;;;;;7.27;6.23;;;;;;;;;;5009141;28;20265;-67
2023/11/27 12:13:38;;;;;;;7.83;6.00;;;;;;;;;;5014715;28;20182;-67
2023/11/27 12:16:11;;;;;;;8.83;6.37;;;;;;;;;;5024495;28;20638;-67
2023/11/27 12:18:36;;;;;;;8.20;6.53;;;;;;;;;;5014375;28;20217;-68
2023/11/27 12:21:05;;;;;;;8.33;6.80;;;;;;;;;;5027209;28;20221;-70
2023/11/27 12:23:35;;;;;;;10.60;7.27;;;;;;;;;;5024477;28;20249;-68
2023/11/27 12:26:06;;;;;;;11.97;6.23;;;;;;;;;;5010833;28;20273;-68
2023/11/27 12:28:31;;;;;;;9.27;7.27;;;;;;;;;;5026675;28;20264;-67
2023/11/27 12:30:58;;;;;;;9.40;7.10;;;;;;;;;;5021974;28;20229;-68
2023/11/27 12:33:23;;;;;;;10.23;7.57;;;;;;;;;;5025665;28;20189;-67
2023/11/27 12:35:50;;;;;;;9.57;7.10;;;;;;;;;;5018851;28;20175;-67
2023/11/27 12:38:16;;;;;;;10.60;7.53;;;;;;;;;;5024276;28;20304;-67
2023/11/27 12:40:47;;;;;;;9.37;6.90;;;;;;;;;;5020779;28;20189;-67
2023/11/27 12:43:16;;;;;;;10.70;7.23;;;;;;;;;;5007079;28;20679;-69
2023/11/27 12:45:43;;;;;;;10.30;7.33;;;;;;;;;;5023093;28;20197;-68
2023/11/27 12:48:08;;;;;;;8.27;6.93;;;;;;;;;;5025606;28;20183;-67
2023/11/27 12:50:40;;;;;;;9.33;7.63;;;;;;;;;;5024590;28;20221;-70
2023/11/27 12:53:09;;;;;;;8.73;6.67;;;;;;;;;;5006383;28;20717;-67
2023/11/27 12:55:37;;;;;;;8.37;6.83;;;;;;;;;;5026102;28;20538;-67
2023/11/27 12:58:10;;;;;;;9.97;7.50;;;;;;;;;;5024621;28;20261;-67
2023/11/27 13:00:39;;;;;;;10.57;6.93;;;;;;;;;;5028138;28;20665;-67
2023/11/27 13:03:05;;;;;;;9.07;6.50;;;;;;;;;;5028018;28;20275;-67
2023/11/27 13:05:31;;;;;;;9.60;6.77;;;;;;;;;;5023831;28;20276;-67
2023/11/27 13:07:57;;;;;;;8.17;5.87;;;;;;;;;;5029099;28;20183;-67
2023/11/27 13:10:22;;;;;;;9.23;7.20;;;;;;;;;;5027876;28;20213;-68
2023/11/27 13:12:50;;;;;;;9.30;7.13;;;;;;;;;;5031725;28;20202;-68
2023/11/27 13:15:21;;;;;;;8.63;6.67;;;;;;;;;;5027571;28;20193;-68
2023/11/27 13:17:56;;;;;;;10.53;6.63;;;;;;;;;;5027734;28;20548;-68
2023/11/27 13:20:22;;;;;;;9.03;7.00;;;;;;;;;;5026603;28;20190;-68
2023/11/27 13:22:47;;;;;;;12.47;6.73;;;;;;;;;;5023677;28;20203;-68
2023/11/27 13:25:14;;;;;;;12.27;8.13;;;;;;;;;;5027328;28;20183;-68
2023/11/27 13:27:44;;;;;;;11.77;7.57;;;;;;;;;;5009891;28;20186;-68
2023/11/27 13:30:09;;;;;;;9.30;7.03;;;;;;;;;;5029874;28;20202;-68
2023/11/27 13:32:35;;;;;;;9.53;7.30;;;;;;;;;;5027473;28;20285;-68
2023/11/27 13:35:03;;;;;;;13.13;7.67;;;;;;;;;;5009510;28;20213;-68
2023/11/27 13:37:34;;;;;;;9.03;6.93;;;;;;;;;;5025156;28;20641;-68
2023/11/27 13:40:01;;;;;;;11.37;7.37;;;;;;;;;;5021879;28;20189;-68
2023/11/27 13:42:36;;;;;;;8.43;6.57;;;;;;;;;;5025177;28;20626;-68
2023/11/27 13:45:01;;;;;;;9.23;7.17;;;;;;;;;;5008324;28;20756;-68
2023/11/27 13:47:26;;;;;;;8.77;7.20;;;;;;;;;;5026835;28;20210;-68
2023/11/27 13:49:55;;;;;;;8.70;6.57;;;;;;;;;;5029526;28;20686;-68
2023/11/27 13:52:22;;;;;;;7.97;6.47;;;;;;;;;;5008825;28;20217;-68
2023/11/27 13:54:48;;;;;;;8.63;7.00;;;;;;;;;;5023828;28;20175;-68
2023/11/27 13:57:17;;;;;;;8.50;6.83;;;;;;;;;;5007448;28;20543;-68
2023/11/27 13:59:43;;;;;;;9.70;6.90;;;;;;;;;;5022415;28;20267;-68
2023/11/27 14:02:13;;;;;;;11.27;7.40;;;;;;;;;;5010041;28;20554;-68
2023/11/27 14:04:38;;;;;;;8.80;7.13;;;;;;;;;;5009026;28;20233;-68
2023/11/27 14:07:07;;;;;;;9.83;7.77;;;;;;;;;;5016971;28;20190;-68
2023/11/27 14:09:54;;;;;;;8.07;6.50;;;;;;;;;;5025228;28;20345;-69
2023/11/27 14:12:26;;;;;;;8.97;7.20;;;;;;;;;;5021427;28;20206;-69
2023/11/27 14:15:05;;;;;;;9.80;7.27;;;;;;;;;;5022828;28;20573;-68
2023/11/27 14:17:32;;;;;;;9.77;7.20;;;;;;;;;;5006913;28;20204;-69
2023/11/27 14:28:30;;;;;;;11.23;7.03;;;;;;;;;;5027126;28;20194;-68
2023/11/27 14:30:55;;;;;;;9.00;6.60;;;;;;;;;;5026852;28;20277;-68
2023/11/27 14:33:21;;;;;;;11.03;7.83;;;;;;;;;;5031985;28;20741;-69
2023/11/27 14:35:47;;;;;;;9.83;6.50;;;;;;;;;;5007873;28;20190;-68
2023/11/27 14:38:12;;;;;;;9.83;6.50;;;;;;;;;;5025729;28;20175;-68
2023/11/27 14:40:38;;;;;;;7.90;6.70;;;;;;;;;;5027048;28;20178;-68